Ana Sayfa
METAR-TAF:

METAR-TAF

Havaalanları :

Rantoul National Aviation Center Airport (Frank Elliott Field)

Rantoul, Illinois, Amerika Birleşik Devletleri

Enlem: 40-17-37N, Boylam: 088-08-33W, yükseklik: 225 m

Güncel hava durumu gözlemi

Rapor saat 17:15 UTC de 6 dakika önce yapıldı.
Rüzgar güney/güneydoğudan 5 kt
Sıcaklık 26°C
Nem 54%
Basınç 1013 hPa
Görüş mesafesi: 16.1 km
4000 ft yükseklikte parçalı bulutlu
4600 ft yükseklikte parçalı bulutlu
6000 ft yükseklikte parçalı bulutlu

METAR: KTIP 181715Z AUTO 15005KT 10SM SCT040 SCT046 SCT060 26/16 A2990 RMK AO2 T02640158

Saat: 12:21 (17:21 UTC)


TAF: eksik

4.000'den fazla havaalanı için hava durumu gözlemleri ve tahminleri (METAR ve TAF raporları).

Kullanılabilir istasyonlar harita üzerinde sarı ve kırmızı noktalarla gösterilir.

İstasyonun adını görmek için fareyi noktanın üzerinde gezdirin.

Sonrasında hava gözlem ve tahminlerini görmek için tıklayın.

Haritayı değiştirmek için: yaklaştırmak için siyah artı işaretli yeşil düğmeye ve uzaklaştırmak için de eksi işaretli düğmeye hızla tıklayın; bitişik haritalar için yeşil okları kullanın.


METAR-TAF: